WIIIWAJJ

Guest
Details From WIII - Jakarta Sukarno-hatta Intl
To WAJJ - Jayapura Sentani
Flight Number -
Tags Generated
Created
Modified
Stats Distance 2,039 nm / 3,776 km
Max Altitude 0 ft / 0 m
Waypoints 4
Social Downloads 13
Likes 0
Share VATSIM

Download

Looking for another format? Having issues loading an existing format? Contact us
Advertisement - Login to hide

Notes

Generated

Route

WIII KJ ZN WAJJ

ID Type Via Altitude Latitude Longitude Leg Dist Tot Dist Heading (true) Name
O WIII APT - 0 ft / 0 m -6.12106˚ 106.63876˚ - 0 nm - -
KJ NDB - 0 ft / 0 m -5.80389˚ 110.44632˚ 228 nm 228 nm 85° / 85° KARIMUNJAWA NDB
ZN NDB - 0 ft / 0 m -2.56824˚ 140.50746˚ 1810 nm 2038 nm 85° / 83° JAYAPURA NDB
O WAJJ APT - 0 ft / 0 m -2.57111˚ 140.50859˚ 0 nm 2039 nm 159° / 159° -

Altitude Profile

Advertisement - Login to hide

Weather


0- 5 10 15 20 25 30 35+ Temperature / ° C

Clouds and Precipitation
Forecast for 2017-12-16 18:00 UTC. Updated 2 hours ago

Ground ~20,000 ft ~40,000 ft Winds

WIII

Details ICAO WIII (CGK)
Name Jakarta Sukarno-Hatta Intl
Region Indonesia
Timezone Asia/Jakarta (UTC+7.0)
Stats Elevation 34 ft / 10 m (AMSL)
Location -6.125743° 106.656405°
Runways 2
Magnetic Variation 0.630° E

METAR

WIII 161900Z 23004KT 6000 SCT020 24/23 Q1010 NOSIG

Decode

TAF

TAF WIII 161700Z 1618/1800 22005KT 4000 BR SCT020 BECMG 1701/1703 28010KT 9000

Decode

Departure Runways

ID Width Length Bearing (true) Bearing (mag) Surface Threshold Offset Overrun Length
07L 197 ft / 60 m 11,823 ft / 3,604 m 68.13° 67.50° Concrete 0 ft / 0 m 200 ft / 61 m
07R 197 ft / 60 m 12,024 ft / 3,665 m 68.12° 67.49° Concrete 0 ft / 0 m 200 ft / 61 m
25L 197 ft / 60 m 12,024 ft / 3,665 m 248.12° 247.49° Concrete 0 ft / 0 m 200 ft / 61 m
25R 197 ft / 60 m 11,823 ft / 3,604 m 248.12° 247.49° Concrete 0 ft / 0 m 200 ft / 61 m

WAJJ

Details ICAO WAJJ (DJJ)
Name Jayapura Sentani
Region Indonesia
Timezone Asia/Jayapura (UTC+9.0)
Stats Elevation 289 ft / 88 m (AMSL)
Location -2.576982° 140.516471°
Runways 1
Magnetic Variation 3.270° E

METAR

WAJJ 161900Z 00000KT 9999 FEW014 24/22 Q1006 NOSIG

Decode

TAF

Not found

Destination Runways

ID Width Length Bearing (true) Bearing (mag) Surface Threshold Offset Overrun Length
12 148 ft / 45 m 7,172 ft / 2,186 m 126.72° 123.45° Asphalt 0 ft / 0 m 197 ft / 60 m
30 148 ft / 45 m 7,172 ft / 2,186 m 306.72° 303.45° Asphalt 0 ft / 0 m 197 ft / 60 m

Approach Navaids

Runway Type Ident Frequency Range Bearing (true) Bearing (mag) Slope Elevation
30 Localiser IJPA 110.30 MHz 18 nm / 33 km 306.72° 303.45° - 289 ft / 88 m (AMSL)
30 Glidescope IJPA 110.30 MHz 10 nm / 19 km 306.72° 303.45° 3.00° 289 ft / 88 m (AMSL)
30 DME IJPA 110.30 MHz 18 nm / 33 km - - - 289 ft / 88 m (AMSL)

Popular Alternatives